Time;durP1;ratioP1;P1;durP2;ratioP2;P2;SDS_P1;SDS_P2;PMS_P1;PMS_P2;Temp;Humidity;BMP_temperature;BMP_pressure;BME280_temperature;BME280_humidity;BME280_pressure;Samples;Min_cycle;Max_cycle;Signal;HPM_P1;HPM_P2
2022/08/25 00:09:46;;;;;;;5.40;1.90;;;25.70;80.60;;;;;;7568272;78;26729;-62
2022/08/25 00:19:48;;;;;;;8.35;2.17;;;25.70;80.80;;;;;;7558011;78;26259;-60
2022/08/25 00:29:51;;;;;;;6.53;1.90;;;25.60;81.00;;;;;;7606221;78;26344;-58
2022/08/25 00:39:55;;;;;;;3.92;1.22;;;25.60;81.10;;;;;;7634783;76;26258;-57
2022/08/25 00:50:00;;;;;;;6.85;1.90;;;25.50;81.10;;;;;;7627443;76;26259;-58
2022/08/25 01:00:15;;;;;;;2.90;1.95;;;25.40;81.10;;;;;;7635457;76;26282;-59
2022/08/25 01:10:18;;;;;;;10.95;2.20;;;25.40;81.00;;;;;;7594853;78;26350;-59
2022/08/25 01:20:24;;;;;;;2.98;1.77;;;25.40;80.60;;;;;;7618235;76;26620;-58
2022/08/25 01:30:27;;;;;;;5.00;2.17;;;25.30;81.20;;;;;;7599314;76;26336;-58
2022/08/25 01:40:30;;;;;;;5.28;1.95;;;25.30;81.20;;;;;;7588900;78;26253;-58
2022/08/25 01:50:33;;;;;;;3.77;1.85;;;25.20;80.90;;;;;;7593217;78;26282;-60
2022/08/25 02:00:35;;;;;;;2.87;1.75;;;25.20;81.00;;;;;;7610117;78;26371;-60
2022/08/25 02:10:39;;;;;;;3.50;1.77;;;25.20;80.60;;;;;;7621256;78;26378;-58
2022/08/25 02:20:42;;;;;;;3.42;1.60;;;25.10;81.30;;;;;;7618116;78;26942;-57
2022/08/25 02:30:46;;;;;;;2.25;1.40;;;25.10;81.10;;;;;;7552308;78;26321;-59
2022/08/25 02:40:50;;;;;;;4.30;2.10;;;25.00;81.10;;;;;;7565014;78;26820;-60
2022/08/25 02:50:53;;;;;;;3.90;2.20;;;24.90;81.20;;;;;;7465678;77;26355;-61
2022/08/25 03:00:56;;;;;;;4.20;1.72;;;24.90;81.20;;;;;;7406812;78;26347;-59
2022/08/25 03:10:58;;;;;;;4.37;1.82;;;24.90;81.70;;;;;;7392925;78;26440;-60
2022/08/25 03:21:02;;;;;;;4.22;1.98;;;24.80;81.70;;;;;;7438805;78;26308;-59
2022/08/25 03:31:04;;;;;;;13.08;3.12;;;24.80;81.70;;;;;;7422759;78;26350;-60
2022/08/25 03:41:20;;;;;;;12.73;3.17;;;24.80;81.80;;;;;;7414098;78;26320;-59
2022/08/25 03:51:31;;;;;;;12.70;2.40;;;24.70;82.10;;;;;;7426122;78;26347;-59
2022/08/25 04:01:33;;;;;;;8.55;2.20;;;24.70;82.10;;;;;;7408663;78;26471;-60
2022/08/25 04:11:37;;;;;;;3.75;2.30;;;24.60;82.00;;;;;;7400349;78;26339;-58
2022/08/25 04:21:40;;;;;;;8.13;2.60;;;24.60;82.00;;;;;;7417034;78;26843;-60
2022/08/25 04:31:45;;;;;;;6.65;2.20;;;24.60;82.00;;;;;;7411466;78;26978;-60
2022/08/25 04:41:49;;;;;;;3.72;2.80;;;24.50;82.00;;;;;;7420816;78;26371;-61
2022/08/25 04:51:51;;;;;;;5.55;2.25;;;24.50;81.70;;;;;;7402125;78;26646;-60
2022/08/25 05:01:54;;;;;;;4.05;2.30;;;24.50;82.60;;;;;;7425635;78;26285;-60
2022/08/25 05:11:56;;;;;;;4.10;2.12;;;24.60;81.70;;;;;;7400754;78;26860;-61
2022/08/25 05:21:59;;;;;;;4.62;2.70;;;24.70;81.30;;;;;;7420342;78;26272;-59
2022/08/25 05:32:01;;;;;;;5.33;2.37;;;24.90;81.20;;;;;;7391517;78;26342;-59
2022/08/25 05:42:04;;;;;;;3.52;2.65;;;24.90;80.90;;;;;;7391301;78;26786;-60
2022/08/25 05:52:07;;;;;;;8.00;2.75;;;25.10;80.90;;;;;;7426274;78;26806;-62
2022/08/25 06:12:31;;;;;;;6.53;2.55;;;25.40;80.90;;;;;;7403162;78;26990;-59
2022/08/25 06:22:34;;;;;;;9.18;2.70;;;25.50;80.90;;;;;;7422446;78;27262;-57
2022/08/25 06:32:38;;;;;;;13.05;3.10;;;25.60;81.10;;;;;;7404034;78;26314;-60
2022/08/25 06:42:41;;;;;;;9.95;2.80;;;25.80;81.40;;;;;;7417093;78;26288;-62
2022/08/25 06:52:43;;;;;;;6.95;2.72;;;26.00;81.20;;;;;;7430334;78;26771;-59
2022/08/25 07:02:46;;;;;;;14.78;3.58;;;26.10;80.70;;;;;;7401066;78;26276;-58
2022/08/25 07:12:50;;;;;;;7.00;3.83;;;26.30;82.00;;;;;;7417415;78;26269;-59
2022/08/25 07:22:53;;;;;;;11.65;4.45;;;26.50;84.40;;;;;;7420108;78;26384;-59
2022/08/25 07:32:55;;;;;;;10.40;4.50;;;26.50;85.00;;;;;;7409077;78;26382;-61
2022/08/25 07:43:00;;;;;;;10.80;4.83;;;26.70;84.50;;;;;;7424898;78;26894;-60
2022/08/25 07:53:03;;;;;;;6.28;4.60;;;26.90;86.10;;;;;;7421792;78;26284;-58
2022/08/25 08:03:08;;;;;;;8.30;4.97;;;27.00;85.40;;;;;;7393358;78;26962;-63
2022/08/25 08:13:10;;;;;;;11.57;4.90;;;27.20;85.70;;;;;;7398287;78;26273;-59
2022/08/25 08:23:14;;;;;;;8.30;4.97;;;27.40;85.70;;;;;;7413279;78;26367;-58
2022/08/25 08:33:16;;;;;;;9.60;5.20;;;27.60;84.90;;;;;;7409670;78;26800;-60
2022/08/25 08:43:19;;;;;;;7.40;3.80;;;27.70;84.20;;;;;;7434234;78;26285;-56
2022/08/25 08:53:33;;;;;;;12.73;4.42;;;27.60;83.80;;;;;;7448364;78;26399;-59
2022/08/25 09:03:42;;;;;;;13.72;5.03;;;27.50;83.50;;;;;;7416288;78;26734;-58
2022/08/25 09:13:50;;;;;;;11.68;4.70;;;27.50;85.60;;;;;;7413164;78;26421;-58
2022/08/25 09:24:08;;;;;;;11.55;5.92;;;27.40;85.50;;;;;;7409649;78;26341;-56
2022/08/25 09:34:22;;;;;;;9.80;5.20;;;27.50;85.20;;;;;;7436915;78;26394;-58
2022/08/25 09:44:27;;;;;;;10.43;4.87;;;27.50;85.00;;;;;;7423004;78;26313;-59
2022/08/25 09:54:33;;;;;;;16.27;4.70;;;27.50;85.80;;;;;;7433606;78;26822;-59
2022/08/25 10:04:37;;;;;;;8.18;4.00;;;27.50;84.80;;;;;;7429317;77;26291;-58
2022/08/25 10:14:39;;;;;;;12.63;4.83;;;27.50;85.00;;;;;;7433689;78;26285;-59
2022/08/25 10:24:42;;;;;;;5.30;4.10;;;27.50;84.90;;;;;;7432274;78;27130;-59
2022/08/25 10:34:56;;;;;;;11.48;4.80;;;27.50;85.40;;;;;;7445289;78;26265;-59
2022/08/25 10:45:43;;;;;;;14.58;4.87;;;27.60;85.00;;;;;;7435015;78;27202;-58
2022/08/25 10:55:51;;;;;;;6.22;4.42;;;27.50;84.90;;;;;;7430299;78;26362;-59
2022/08/25 11:06:09;;;;;;;6.42;4.55;;;27.60;84.60;;;;;;7390816;78;26335;-58
2022/08/25 11:16:20;;;;;;;7.10;4.47;;;27.50;84.20;;;;;;7424736;78;26359;-58
2022/08/25 11:26:28;;;;;;;8.18;4.70;;;27.60;82.40;;;;;;7421157;78;26351;-59
2022/08/25 11:36:42;;;;;;;6.45;4.45;;;27.50;83.20;;;;;;7419682;78;26284;-58
2022/08/25 11:46:48;;;;;;;7.40;4.80;;;27.70;80.70;;;;;;7441388;78;26401;-58
2022/08/25 11:57:09;;;;;;;9.40;4.55;;;27.60;82.30;;;;;;7423379;78;27252;-60
2022/08/25 12:07:17;;;;;;;6.50;4.60;;;27.60;81.90;;;;;;7425769;78;26371;-60
2022/08/25 12:17:26;;;;;;;7.05;4.25;;;27.60;81.50;;;;;;7427367;80;26366;-60
2022/08/25 12:27:34;;;;;;;10.78;4.05;;;27.60;81.50;;;;;;7422358;78;26832;-60
2022/08/25 12:37:51;;;;;;;9.80;4.45;;;27.60;81.10;;;;;;7438788;79;26335;-58
2022/08/25 12:47:56;;;;;;;10.30;4.35;;;27.70;80.50;;;;;;7435354;80;26277;-61
2022/08/25 12:58:00;;;;;;;5.15;4.10;;;27.70;80.00;;;;;;7437119;79;26273;-59
2022/08/25 13:08:22;;;;;;;6.40;4.42;;;27.70;80.00;;;;;;7438055;79;26747;-60
2022/08/25 13:18:30;;;;;;;15.55;4.75;;;27.70;80.20;;;;;;7394389;80;26347;-58
2022/08/25 13:28:38;;;;;;;12.03;4.70;;;27.70;80.20;;;;;;7421184;80;26288;-59
2022/08/25 13:38:43;;;;;;;8.55;4.53;;;27.80;79.90;;;;;;7426899;78;26304;-59
2022/08/25 13:48:45;;;;;;;9.73;5.78;;;27.90;79.20;;;;;;7423535;78;26818;-59
2022/08/25 13:58:48;;;;;;;10.30;4.83;;;27.80;79.90;;;;;;7435344;79;26285;-59
2022/08/25 14:09:00;;;;;;;11.05;4.47;;;27.80;79.80;;;;;;7437544;80;26754;-61
2022/08/25 14:19:03;;;;;;;7.97;5.05;;;27.80;79.70;;;;;;7438901;80;26296;-61
2022/08/25 14:29:05;;;;;;;10.32;5.50;;;27.80;79.60;;;;;;7435199;79;26277;-58
2022/08/25 14:39:09;;;;;;;27.70;7.30;;;27.80;80.20;;;;;;7436130;80;26319;-60
2022/08/25 14:49:14;;;;;;;16.17;6.10;;;27.80;85.40;;;;;;7421422;78;26358;-59
2022/08/25 14:59:17;;;;;;;17.87;6.03;;;27.80;82.80;;;;;;7440616;80;26268;-61
2022/08/25 15:09:20;;;;;;;9.20;4.90;;;27.90;81.80;;;;;;7441322;80;26342;-60
2022/08/25 15:19:26;;;;;;;13.28;5.35;;;27.90;81.20;;;;;;7369067;78;27681;-57
2022/08/25 15:29:30;;;;;;;8.08;4.47;;;27.90;81.50;;;;;;7339831;80;26342;-56
2022/08/25 15:39:33;;;;;;;7.20;4.60;;;27.90;80.40;;;;;;7325605;80;26371;-57
2022/08/25 15:49:35;;;;;;;9.05;5.40;;;27.90;80.70;;;;;;7320355;80;26303;-60
2022/08/25 15:59:39;;;;;;;9.38;4.60;;;27.90;80.60;;;;;;7327170;79;26291;-58
2022/08/25 16:09:41;;;;;;;6.12;4.65;;;28.00;79.00;;;;;;7332785;80;26316;-56
2022/08/25 16:19:44;;;;;;;5.85;4.22;;;28.00;79.10;;;;;;7307785;80;26319;-57
2022/08/25 16:29:48;;;;;;;7.12;4.67;;;27.90;79.80;;;;;;7307173;80;26256;-58
2022/08/25 16:39:54;;;;;;;6.90;4.50;;;27.90;80.10;;;;;;7326367;80;26389;-55
2022/08/25 16:49:57;;;;;;;7.00;4.60;;;27.90;79.50;;;;;;7338154;80;26356;-57
2022/08/25 16:59:59;;;;;;;9.13;4.90;;;27.90;79.90;;;;;;7310784;80;26439;-58
2022/08/25 17:10:04;;;;;;;6.87;4.78;;;27.90;80.30;;;;;;7323609;80;26855;-60
2022/08/25 17:20:07;;;;;;;5.47;4.03;;;27.80;80.40;;;;;;7333161;80;26886;-59
2022/08/25 17:30:10;;;;;;;6.40;4.60;;;27.80;80.50;;;;;;7325315;80;26292;-59
2022/08/25 17:40:13;;;;;;;4.55;3.70;;;27.80;80.70;;;;;;7329699;80;26291;-57
2022/08/25 17:50:16;;;;;;;7.37;4.65;;;27.80;80.70;;;;;;7314464;80;26390;-61
2022/08/25 18:00:20;;;;;;;5.10;4.33;;;27.80;80.90;;;;;;7324376;80;26362;-59
2022/08/25 18:10:24;;;;;;;6.58;4.53;;;27.80;81.00;;;;;;7313892;80;26284;-59
2022/08/25 18:20:26;;;;;;;7.00;4.67;;;27.80;81.10;;;;;;7297769;79;26709;-59
2022/08/25 18:30:29;;;;;;;11.83;4.17;;;27.80;81.10;;;;;;7300759;80;26276;-59
2022/08/25 18:40:33;;;;;;;23.52;6.03;;;27.70;80.90;;;;;;7296317;80;26397;-59
2022/08/25 18:50:38;;;;;;;22.32;6.53;;;27.70;82.00;;;;;;7313178;80;26793;-58
2022/08/25 19:00:43;;;;;;;12.35;4.85;;;27.70;83.80;;;;;;7312531;80;26358;-57
2022/08/25 19:10:48;;;;;;;14.53;4.75;;;27.60;83.30;;;;;;7318605;80;26357;-55
2022/08/25 19:20:52;;;;;;;8.18;4.30;;;27.60;83.10;;;;;;7287658;80;26317;-57
2022/08/25 19:30:55;;;;;;;12.47;4.70;;;27.50;83.10;;;;;;7290665;80;26360;-57
2022/08/25 19:40:58;;;;;;;11.63;5.03;;;27.50;83.30;;;;;;7329263;80;26334;-59
2022/08/25 19:51:00;;;;;;;9.80;5.62;;;27.40;83.80;;;;;;7287990;79;26326;-60
2022/08/25 20:01:03;;;;;;;5.60;4.37;;;27.40;84.30;;;;;;7160661;79;26358;-59
2022/08/25 20:11:05;;;;;;;8.70;4.53;;;27.40;84.00;;;;;;7056045;83;26410;-60
2022/08/25 20:21:08;;;;;;;7.75;4.20;;;27.40;84.00;;;;;;7055152;83;26453;-59
2022/08/25 20:31:11;;;;;;;8.48;5.20;;;27.40;83.80;;;;;;7239584;80;26287;-59
2022/08/25 20:41:14;;;;;;;7.58;4.30;;;27.30;85.20;;;;;;7240269;80;26395;-60
2022/08/25 20:51:19;;;;;;;6.40;4.10;;;27.20;86.40;;;;;;7247552;80;26293;-58
2022/08/25 21:01:36;;;;;;;11.60;3.70;;;27.20;86.70;;;;;;7243045;80;26318;-57
2022/08/25 21:11:27;;;;;;;11.75;4.10;;;27.20;86.00;;;;;;7248681;80;26276;-58
2022/08/25 21:21:30;;;;;;;7.58;5.03;;;27.20;86.80;;;;;;7265152;80;26850;-58
2022/08/25 21:31:33;;;;;;;9.15;4.67;;;27.10;85.50;;;;;;7239706;80;26272;-59
2022/08/25 21:41:43;;;;;;;10.72;4.65;;;27.10;86.90;;;;;;7256805;80;26297;-57
2022/08/25 21:51:43;;;;;;;10.63;4.47;;;27.10;87.10;;;;;;7250186;80;26362;-58
2022/08/25 22:01:46;;;;;;;10.50;4.15;;;27.00;87.20;;;;;;7236180;80;26323;-60
2022/08/25 22:11:54;;;;;;;7.80;4.15;;;27.00;87.20;;;;;;7244535;80;26293;-58
2022/08/25 22:21:54;;;;;;;10.10;4.12;;;27.00;87.20;;;;;;7230501;80;26332;-58
2022/08/25 22:31:57;;;;;;;6.15;3.75;;;26.90;87.40;;;;;;7230971;80;26412;-57
2022/08/25 22:41:59;;;;;;;4.72;3.62;;;26.90;87.20;;;;;;7245217;80;26295;-60
2022/08/25 22:52:02;;;;;;;5.08;3.83;;;26.90;87.30;;;;;;7243073;80;26655;-59
2022/08/25 23:02:05;;;;;;;5.53;3.87;;;26.80;87.00;;;;;;7231174;80;26919;-59
2022/08/25 23:12:08;;;;;;;4.78;3.92;;;26.80;87.20;;;;;;7243209;80;26308;-60
2022/08/25 23:22:12;;;;;;;5.08;4.03;;;26.80;87.20;;;;;;7244844;80;26942;-58
2022/08/25 23:32:17;;;;;;;9.05;4.17;;;26.70;86.50;;;;;;7237716;80;26773;-58
2022/08/25 23:42:20;;;;;;;11.03;4.17;;;26.70;87.10;;;;;;7238429;80;26308;-58
2022/08/25 23:52:22;;;;;;;5.78;3.92;;;26.60;87.20;;;;;;7250492;80;26336;-57
